Bei Facebook empfehlenBei Twitter postenGoogle plusPinterest

Das Wetter im Erzgebirge am 19.12.2015

Wetter und Klima am 19.12.2015 Holzhau im Erzgebirge (630m ü.NN)
Letzte gemessene Temperatur und Uhrzeit der Messung23:45:00 Uhr5.00 °C
Temperatur (Maximum / Höchstwert) und Uhrzeit der Messung14:15:00 Uhr10.70 °C
Temperatur (Minimum / Tiefstwert) und Uhrzeit der Messung04:30:002.60 °C
Errechneter Absolutwert der Temperaturschwankungen zwischen Tmin und Tmax des Tages8.10 K
Errechnete Tagesmitteltemperatur5.58125 °C
Gesamt - Niederschlag des Tages (in flüssiger Form)0.00 Liter / m²
Luftdruck (Maximum / Höchstwert) und Zeitpunkt der Messung10:45:00 Uhr1020.90 hPa
Luftdruck (Minimum / Tiefstwert) und Zeitpunkt der Messung05:15:00 Uhr1019.30 hPa
Errechneter Absolutwert der Luftdruckschwankungen des Tages1.60 hPa
Höchste gemessene Windgeschwindigkeit und Uhrzeit der Messung07:45:00 Uhr7.56 km/h
Errechnete Windhäufigkeit in Relation zu den Messwerten des Tages20.83333 %
Niedrigste Windkühle (Windchill) und Zeitpunkt der Messung07:45:00 Uhr2.20 °C
Taupunkt (Maximum / Höchstwert) und Uhrzeit der Messung14:15:00 Uhr10.20 °C
Taupunkt (Minimum / Tiefstwert) und Uhrzeit der Messung04:30:002.00 °C
Anzahl der automatisch eingelesenen Messwerte 96

Detaillierte Wetter- und Klima- Messwerte für den 19.12.2015 in Holzhau im Erzgebirge (630m ü.NN)
ZeitTemperaturLuftdruckRel. LuftfeuchteWindWindrichtungWindchillTaupunktNiederschlag l/m²
23:45:005.00 °C1020.00 hPa96.00 %4.40 °C 
23:30:004.60 °C1020.00 hPa96.00 %4.00 °C 
23:15:004.50 °C1020.00 hPa96.00 %3.90 °C 
23:00:004.50 °C1020.20 hPa96.00 %3.90 °C 
22:45:004.50 °C1020.10 hPa96.00 %4.68 km/hOSO4.50 °C3.90 °C 
22:30:004.30 °C1020.10 hPa96.00 %4.68 km/hOSO4.30 °C3.70 °C 
22:15:004.10 °C1020.20 hPa96.00 %3.50 °C 
22:00:004.20 °C1020.10 hPa96.00 %3.60 °C 
21:45:003.60 °C1020.20 hPa96.00 %3.00 °C 
21:30:003.60 °C1020.20 hPa96.00 %3.00 °C 
21:15:003.80 °C1020.00 hPa96.00 %3.20 °C 
21:00:003.50 °C1020.00 hPa96.00 %3.96 km/hOSO3.50 °C2.90 °C 
20:45:003.40 °C1019.80 hPa96.00 %2.16 km/hSO3.40 °C2.80 °C 
20:30:002.90 °C1020.00 hPa96.00 %2.30 °C 
20:15:003.10 °C1020.00 hPa96.00 %2.50 °C 
20:00:003.30 °C1019.90 hPa96.00 %2.88 km/hSO3.30 °C2.70 °C 
19:45:003.60 °C1019.70 hPa96.00 %3.00 °C 
19:30:003.60 °C1019.40 hPa96.00 %5.40 km/hSO2.30 °C3.00 °C 
19:15:003.80 °C1019.50 hPa96.00 %2.16 km/hOSO3.80 °C3.20 °C 
19:00:004.10 °C1019.60 hPa96.00 %3.50 °C 
18:45:004.10 °C1019.70 hPa96.00 %3.50 °C 
18:30:004.00 °C1019.90 hPa95.00 %1.80 km/hOSO4.00 °C3.30 °C 
18:15:004.10 °C1020.00 hPa95.00 %3.40 °C 
18:00:004.20 °C1019.80 hPa95.00 %3.50 °C 
17:45:004.40 °C1020.00 hPa96.00 %3.80 °C 
17:30:004.90 °C1019.90 hPa96.00 %4.30 °C 
17:15:005.10 °C1019.80 hPa96.00 %4.50 °C 
17:00:005.40 °C1019.70 hPa96.00 %4.80 °C 
16:45:006.20 °C1019.80 hPa95.00 %5.50 °C 
16:30:007.20 °C1019.60 hPa96.00 %6.60 °C 
16:15:007.80 °C1019.80 hPa96.00 %7.20 °C 
16:00:007.90 °C1019.80 hPa96.00 %7.30 °C 
15:45:007.90 °C1019.60 hPa96.00 %7.30 °C 
15:30:008.20 °C1019.40 hPa96.00 %7.60 °C 
15:15:008.80 °C1019.50 hPa96.00 %8.20 °C 
15:00:009.40 °C1019.50 hPa96.00 %8.80 °C 
14:45:009.90 °C1019.60 hPa96.00 %9.30 °C 
14:30:0010.40 °C1019.60 hPa97.00 %9.90 °C 
14:15:0010.70 °C1019.70 hPa97.00 %10.20 °C 
14:00:0010.60 °C1019.70 hPa97.00 %10.10 °C 
13:45:009.90 °C1019.60 hPa97.00 %9.40 °C 
13:30:009.50 °C1019.70 hPa98.00 %9.20 °C 
13:15:009.20 °C1020.00 hPa98.00 %8.90 °C 
13:00:008.90 °C1020.10 hPa97.00 %8.50 °C 
12:45:008.90 °C1020.20 hPa97.00 %8.50 °C 
12:30:009.10 °C1020.30 hPa98.00 %8.80 °C 
12:15:009.00 °C1020.40 hPa97.00 %8.50 °C 
12:00:008.80 °C1020.40 hPa97.00 %8.40 °C 
11:45:008.90 °C1020.70 hPa97.00 %8.50 °C 
11:30:009.20 °C1020.60 hPa98.00 %2.88 km/hSW9.20 °C8.90 °C 
11:15:009.10 °C1020.70 hPa98.00 %8.80 °C 
11:00:008.70 °C1020.80 hPa97.00 %8.30 °C 
10:45:007.90 °C1020.90 hPa97.00 %7.50 °C 
10:30:007.30 °C1020.90 hPa98.00 %7.00 °C 
10:15:006.90 °C1020.60 hPa97.00 %6.50 °C 
10:00:006.50 °C1020.50 hPa97.00 %6.10 °C 
09:45:006.20 °C1020.60 hPa97.00 %5.80 °C 
09:30:005.90 °C1020.40 hPa97.00 %5.50 °C 
09:15:006.00 °C1020.20 hPa97.00 %5.60 °C 
09:00:005.80 °C1020.00 hPa97.00 %5.40 °C 
08:45:005.30 °C1019.50 hPa97.00 %4.90 °C 
08:30:004.90 °C1019.50 hPa97.00 %4.50 °C 
08:15:004.90 °C1019.70 hPa97.00 %1.80 km/hWSW4.90 °C4.50 °C 
08:00:004.60 °C1019.40 hPa97.00 %4.20 °C 
07:45:004.10 °C1019.50 hPa97.00 %7.56 km/hSW2.20 °C3.70 °C 
07:30:004.40 °C1019.80 hPa97.00 %4.00 °C 
07:15:005.10 °C1019.60 hPa97.00 %4.70 °C 
07:00:005.80 °C1019.60 hPa97.00 %2.88 km/hSSW5.80 °C5.40 °C 
06:45:005.80 °C1019.70 hPa97.00 %3.60 km/hSW5.80 °C5.40 °C 
06:30:005.80 °C1019.60 hPa97.00 %2.16 km/hSW5.80 °C5.40 °C 
06:15:005.40 °C1019.40 hPa97.00 %5.00 °C 
06:00:005.10 °C1019.40 hPa97.00 %4.70 °C 
05:45:004.40 °C1019.40 hPa97.00 %4.00 °C 
05:30:003.60 °C1019.40 hPa97.00 %3.20 °C 
05:15:003.40 °C1019.30 hPa97.00 %3.00 °C 
05:00:003.10 °C1019.50 hPa97.00 %2.70 °C 
04:45:002.80 °C1019.40 hPa97.00 %2.40 °C 
04:30:002.60 °C1019.60 hPa96.00 %2.00 °C 
04:15:003.10 °C1019.60 hPa96.00 %2.50 °C 
04:00:003.50 °C1019.80 hPa97.00 %3.10 °C 
03:45:003.90 °C1019.80 hPa97.00 %3.50 °C 
03:30:004.10 °C1019.90 hPa97.00 %3.70 °C 
03:15:004.10 °C1020.20 hPa97.00 %3.70 °C 
03:00:004.40 °C1020.30 hPa97.00 %4.00 °C 
02:45:005.30 °C1020.20 hPa97.00 %4.90 °C 
02:30:005.50 °C1020.10 hPa97.00 %5.10 °C 
02:15:005.30 °C1020.30 hPa97.00 %4.90 °C 
02:00:005.10 °C1020.30 hPa97.00 %4.70 °C 
01:45:005.10 °C1020.20 hPa97.00 %1.44 km/hSSW5.10 °C4.70 °C 
01:30:004.20 °C1020.60 hPa97.00 %6.48 km/hSW2.60 °C3.80 °C 
01:15:003.80 °C1020.80 hPa97.00 %3.40 °C 
01:00:003.60 °C1020.60 hPa97.00 %1.44 km/hOSO3.60 °C3.20 °C 
00:45:003.40 °C1020.70 hPa97.00 %3.00 °C 
00:30:003.20 °C1020.70 hPa96.00 %1.44 km/hOSO3.20 °C2.60 °C 
00:15:003.10 °C1020.70 hPa97.00 %1.44 km/hOSO3.10 °C2.70 °C 
00:00:003.10 °C1020.80 hPa96.00 %1.08 km/hOSO3.10 °C2.50 °C 

Permanenter Link zu dieser Seite: Wetter im Erzgebirge am 19.12.2015
Performance-Info: Die Erstellung der Seite / Statistik(en) / Tabelle(n) erforderte 5 Datenbankserver-Abfrage(n) und dauerte 123 Millisekunden. (Dieser Messwert ist von der Gesamt-Auslastung des Servers abhängig.)
Erzgebirge - Wetter | Erzgebirge - Wetter (Mobilgeräte) | Komplette Klimadatenbank